Valparaiso, FL

7:23 PM CST on March 04, 2015 (GMT -0600)
Eglin Air Force Base | Change Station
CLOSE
Current Station
Airport
Location: Valparaiso,
Elevation: 85 ft
Nearby Weather Stations
Active Advisory: Dense Fog Advisory Active Notice: Public Information Statement

Elev 85 ft 30.48 °N, 86.53 °W | Updated 28 minutes ago

Fog
Fog
67 °F
Feels Like 67 °F
N
7
Wind Variable Wind from SSE

Today
High -- | Low -- °F
--% Chance of Precip.
Yesterday
High -- | Low -- °F
Precip. -- in
6:09 AM 5:46 PM
Full, 100% visible
Pressure 30.00 in
Visibility 0.2 miles
Clouds
Dew Point 67 °F
Humidity 99%
Rainfall 0.00 in
Snow Depth Not available.
UV Not available.
Pollen 9.10 out of 12
Air Quality Not available.
Flu Activity Not available.
METAR KVPS 050055Z 16006KT 1/4SM R19/2800FT FG VV001 19/19 A2998 RMK AO2A SLP158 T01930192 $

More Conditions Fewer Conditions

Pressure 30.00 in
Visibility 0.2 miles
Clouds
Dew Point 67 °F
Humidity 99%
Rainfall 0.00 in
Snow Depth Not available.
UV Not available.
Pollen 9.10 out of 12
Air Quality Not available.
Flu Activity Not available.
METAR KVPS 050055Z 16006KT 1/4SM R19/2800FT FG VV001 19/19 A2998 RMK AO2A SLP158 T01930192 $

More Conditions Fewer Conditions

10-Day Weather Forecast

Almanac

Astronomy

Mar. 04, 2015 Rise Set
Actual Time
Civil Twilight
Nautical Twilight
Astronomical Twilight
Moon
Length of Visible Light
Length of Day
Tomorrow will be .
, % of the Moon is Illuminated

Today's Extremes

State Highs State Lows

Community

WunderPhotos

Upload Photos

1,802,617 photos uploaded!

WunderBlogs® & News

Nearby

Air Quality

  Air Quality AQ Index Pollutant
Not available.

Snow Depth

Station Depth Elevation

Earthquake Activity

City Distance Mag. Time & Date
Minimum magnitude displayed is 2.5.

Coastal Water Temperatures

Place Temperature

Nearby Weather Stations

Dense Fog Advisory
Statement as of 12:06 PM CST on March 04, 2015

... Dense fog advisory in effect from 6 PM this evening to 10 am
CST Thursday...

The National Weather Service in Mobile has issued a dense fog
advisory... which is in effect from 6 PM this evening to 10 am CST
Thursday.

* Visibility... dense fog will redevelop this evening... especially
along and south of the Interstate 10 corridor. Visibilities will be
frequently reduced to one quarter mile or less. The dense fog will
begin to clear Thursday morning as a cold front moves through.

* Impacts... reduced visibility will result in hazardous travel
conditions.

Precautionary/preparedness actions...

A dense fog advisory means visibilities will frequently be
reduced to less than one quarter mile. If driving... slow down...
use your low beam headlights... and leave plenty of distance ahead
of you.